sensor_id;sensor_type;location;lat;lon;timestamp;P1;durP1;ratioP1;P2;durP2;ratioP2
68858;SDS011;55864;49.238;8.092;2023-04-01T00:01:28;4.05;;;1.10;;
68858;SDS011;55864;49.238;8.092;2023-04-01T00:03:29;4.60;;;1.13;;
68858;SDS011;55864;49.238;8.092;2023-04-01T00:05:31;4.37;;;1.20;;
68858;SDS011;55864;49.238;8.092;2023-04-01T00:07:31;7.82;;;1.38;;
68858;SDS011;55864;49.238;8.092;2023-04-01T00:09:32;5.50;;;1.30;;
68858;SDS011;55864;49.238;8.092;2023-04-01T00:11:32;7.97;;;1.40;;
68858;SDS011;55864;49.238;8.092;2023-04-01T00:13:33;8.03;;;1.50;;
68858;SDS011;55864;49.238;8.092;2023-04-01T00:15:34;4.03;;;1.00;;
68858;SDS011;55864;49.238;8.092;2023-04-01T00:17:34;10.23;;;1.55;;
68858;SDS011;55864;49.238;8.092;2023-04-01T00:19:35;7.23;;;1.33;;
68858;SDS011;55864;49.238;8.092;2023-04-01T00:21:37;7.67;;;1.60;;
68858;SDS011;55864;49.238;8.092;2023-04-01T00:23:37;4.90;;;1.10;;
68858;SDS011;55864;49.238;8.092;2023-04-01T00:25:38;5.60;;;1.40;;
68858;SDS011;55864;49.238;8.092;2023-04-01T00:27:38;4.78;;;1.10;;
68858;SDS011;55864;49.238;8.092;2023-04-01T00:29:41;5.00;;;1.00;;
68858;SDS011;55864;49.238;8.092;2023-04-01T00:31:43;6.88;;;1.23;;
68858;SDS011;55864;49.238;8.092;2023-04-01T00:33:43;5.10;;;1.10;;
68858;SDS011;55864;49.238;8.092;2023-04-01T00:35:44;6.73;;;1.10;;
68858;SDS011;55864;49.238;8.092;2023-04-01T00:37:46;6.03;;;1.05;;
68858;SDS011;55864;49.238;8.092;2023-04-01T00:39:47;4.60;;;1.00;;
68858;SDS011;55864;49.238;8.092;2023-04-01T00:41:47;6.03;;;1.20;;
68858;SDS011;55864;49.238;8.092;2023-04-01T00:43:49;6.27;;;1.30;;
68858;SDS011;55864;49.238;8.092;2023-04-01T00:45:50;7.40;;;1.33;;
68858;SDS011;55864;49.238;8.092;2023-04-01T00:47:51;7.10;;;1.20;;
68858;SDS011;55864;49.238;8.092;2023-04-01T00:49:52;5.90;;;1.00;;
68858;SDS011;55864;49.238;8.092;2023-04-01T00:51:54;6.22;;;1.08;;
68858;SDS011;55864;49.238;8.092;2023-04-01T00:56:01;7.97;;;1.10;;
68858;SDS011;55864;49.238;8.092;2023-04-01T00:58:07;5.47;;;1.20;;
68858;SDS011;55864;49.238;8.092;2023-04-01T01:00:11;5.03;;;1.10;;
68858;SDS011;55864;49.238;8.092;2023-04-01T01:02:14;7.18;;;1.10;;
68858;SDS011;55864;49.238;8.092;2023-04-01T01:04:20;5.20;;;1.37;;
68858;SDS011;55864;49.238;8.092;2023-04-01T01:06:24;6.53;;;1.20;;
68858;SDS011;55864;49.238;8.092;2023-04-01T01:08:42;4.53;;;0.90;;
68858;SDS011;55864;49.238;8.092;2023-04-01T01:11:04;8.20;;;1.40;;
68858;SDS011;55864;49.238;8.092;2023-04-01T01:13:09;6.00;;;1.35;;
68858;SDS011;55864;49.238;8.092;2023-04-01T01:15:12;8.50;;;1.40;;
68858;SDS011;55864;49.238;8.092;2023-04-01T01:17:23;8.33;;;1.57;;
68858;SDS011;55864;49.238;8.092;2023-04-01T01:19:36;7.73;;;1.70;;
68858;SDS011;55864;49.238;8.092;2023-04-01T01:24:30;6.30;;;1.30;;
68858;SDS011;55864;49.238;8.092;2023-04-01T01:26:50;5.93;;;1.10;;
68858;SDS011;55864;49.238;8.092;2023-04-01T01:29:05;6.40;;;1.23;;
68858;SDS011;55864;49.238;8.092;2023-04-01T01:31:17;9.63;;;1.40;;
68858;SDS011;55864;49.238;8.092;2023-04-01T01:33:35;7.83;;;1.10;;
68858;SDS011;55864;49.238;8.092;2023-04-01T01:35:48;6.90;;;1.30;;
68858;SDS011;55864;49.238;8.092;2023-04-01T01:38:06;3.90;;;1.00;;
68858;SDS011;55864;49.238;8.092;2023-04-01T01:40:11;4.87;;;1.53;;
68858;SDS011;55864;49.238;8.092;2023-04-01T01:42:15;2.70;;;0.90;;
68858;SDS011;55864;49.238;8.092;2023-04-01T01:44:20;5.65;;;1.15;;
68858;SDS011;55864;49.238;8.092;2023-04-01T01:46:22;4.82;;;1.02;;
68858;SDS011;55864;49.238;8.092;2023-04-01T01:48:26;3.83;;;1.10;;
68858;SDS011;55864;49.238;8.092;2023-04-01T01:50:29;5.63;;;1.10;;
68858;SDS011;55864;49.238;8.092;2023-04-01T01:52:32;5.63;;;1.10;;
68858;SDS011;55864;49.238;8.092;2023-04-01T01:54:32;3.20;;;0.97;;
68858;SDS011;55864;49.238;8.092;2023-04-01T01:56:33;6.97;;;1.20;;
68858;SDS011;55864;49.238;8.092;2023-04-01T01:58:35;4.30;;;1.00;;
68858;SDS011;55864;49.238;8.092;2023-04-01T02:00:39;4.10;;;1.07;;
68858;SDS011;55864;49.238;8.092;2023-04-01T02:02:41;4.73;;;0.97;;
68858;SDS011;55864;49.238;8.092;2023-04-01T02:04:44;5.13;;;1.10;;
68858;SDS011;55864;49.238;8.092;2023-04-01T02:06:47;6.43;;;1.42;;
68858;SDS011;55864;49.238;8.092;2023-04-01T02:08:55;3.42;;;1.00;;
68858;SDS011;55864;49.238;8.092;2023-04-01T02:10:58;7.60;;;1.30;;
68858;SDS011;55864;49.238;8.092;2023-04-01T02:13:05;6.60;;;1.20;;
68858;SDS011;55864;49.238;8.092;2023-04-01T02:15:11;5.53;;;1.10;;
68858;SDS011;55864;49.238;8.092;2023-04-01T02:17:14;5.43;;;1.23;;
68858;SDS011;55864;49.238;8.092;2023-04-01T02:19:16;6.20;;;1.00;;
68858;SDS011;55864;49.238;8.092;2023-04-01T02:21:18;6.85;;;1.10;;
68858;SDS011;55864;49.238;8.092;2023-04-01T02:23:21;7.07;;;1.33;;
68858;SDS011;55864;49.238;8.092;2023-04-01T02:25:23;10.13;;;1.27;;
68858;SDS011;55864;49.238;8.092;2023-04-01T02:27:27;4.40;;;1.07;;
68858;SDS011;55864;49.238;8.092;2023-04-01T02:29:28;6.53;;;1.20;;
68858;SDS011;55864;49.238;8.092;2023-04-01T02:31:29;5.33;;;1.20;;
68858;SDS011;55864;49.238;8.092;2023-04-01T02:33:31;2.60;;;0.90;;
68858;SDS011;55864;49.238;8.092;2023-04-01T02:35:33;4.70;;;0.97;;
68858;SDS011;55864;49.238;8.092;2023-04-01T02:37:36;4.30;;;1.10;;
68858;SDS011;55864;49.238;8.092;2023-04-01T02:39:38;5.50;;;1.00;;
68858;SDS011;55864;49.238;8.092;2023-04-01T02:41:41;7.93;;;1.13;;
68858;SDS011;55864;49.238;8.092;2023-04-01T02:43:42;5.83;;;1.00;;
68858;SDS011;55864;49.238;8.092;2023-04-01T02:45:43;6.50;;;1.03;;
68858;SDS011;55864;49.238;8.092;2023-04-01T02:47:44;4.87;;;1.10;;
68858;SDS011;55864;49.238;8.092;2023-04-01T02:49:44;5.93;;;1.53;;
68858;SDS011;55864;49.238;8.092;2023-04-01T02:51:45;4.90;;;1.00;;
68858;SDS011;55864;49.238;8.092;2023-04-01T02:53:45;6.33;;;1.20;;
68858;SDS011;55864;49.238;8.092;2023-04-01T02:55:46;4.97;;;0.90;;
68858;SDS011;55864;49.238;8.092;2023-04-01T02:57:48;4.17;;;1.00;;
68858;SDS011;55864;49.238;8.092;2023-04-01T02:59:48;4.67;;;1.03;;
68858;SDS011;55864;49.238;8.092;2023-04-01T03:01:49;5.27;;;1.20;;
68858;SDS011;55864;49.238;8.092;2023-04-01T03:03:49;4.70;;;1.10;;
68858;SDS011;55864;49.238;8.092;2023-04-01T03:05:50;4.63;;;0.90;;
68858;SDS011;55864;49.238;8.092;2023-04-01T03:07:51;4.90;;;1.10;;
68858;SDS011;55864;49.238;8.092;2023-04-01T03:09:51;4.20;;;1.10;;
68858;SDS011;55864;49.238;8.092;2023-04-01T03:11:52;8.87;;;1.50;;
68858;SDS011;55864;49.238;8.092;2023-04-01T03:13:54;7.13;;;1.10;;
68858;SDS011;55864;49.238;8.092;2023-04-01T03:15:54;7.00;;;1.20;;
68858;SDS011;55864;49.238;8.092;2023-04-01T03:17:55;5.50;;;1.00;;
68858;SDS011;55864;49.238;8.092;2023-04-01T03:19:56;5.47;;;1.60;;
68858;SDS011;55864;49.238;8.092;2023-04-01T03:21:56;5.23;;;1.00;;
68858;SDS011;55864;49.238;8.092;2023-04-01T03:23:57;6.47;;;1.10;;
68858;SDS011;55864;49.238;8.092;2023-04-01T03:25:57;5.00;;;0.90;;
68858;SDS011;55864;49.238;8.092;2023-04-01T03:27:58;7.03;;;1.10;;
68858;SDS011;55864;49.238;8.092;2023-04-01T03:30:00;6.23;;;1.30;;
68858;SDS011;55864;49.238;8.092;2023-04-01T03:32:01;4.47;;;0.97;;
68858;SDS011;55864;49.238;8.092;2023-04-01T03:34:02;6.87;;;1.10;;
68858;SDS011;55864;49.238;8.092;2023-04-01T03:36:03;6.23;;;1.00;;
68858;SDS011;55864;49.238;8.092;2023-04-01T03:38:04;6.77;;;1.50;;
68858;SDS011;55864;49.238;8.092;2023-04-01T03:40:05;6.20;;;1.20;;
68858;SDS011;55864;49.238;8.092;2023-04-01T03:42:06;3.80;;;0.90;;
68858;SDS011;55864;49.238;8.092;2023-04-01T03:44:07;5.37;;;1.00;;
68858;SDS011;55864;49.238;8.092;2023-04-01T03:46:09;5.67;;;1.30;;
68858;SDS011;55864;49.238;8.092;2023-04-01T03:48:25;5.63;;;1.07;;
68858;SDS011;55864;49.238;8.092;2023-04-01T03:50:26;4.83;;;1.20;;
68858;SDS011;55864;49.238;8.092;2023-04-01T03:52:26;2.93;;;0.90;;
68858;SDS011;55864;49.238;8.092;2023-04-01T03:54:27;5.63;;;1.20;;
68858;SDS011;55864;49.238;8.092;2023-04-01T03:56:30;6.87;;;1.30;;
68858;SDS011;55864;49.238;8.092;2023-04-01T03:58:40;6.07;;;1.00;;
68858;SDS011;55864;49.238;8.092;2023-04-01T04:00:42;5.40;;;1.10;;
68858;SDS011;55864;49.238;8.092;2023-04-01T04:02:45;5.00;;;1.17;;
68858;SDS011;55864;49.238;8.092;2023-04-01T04:04:49;4.40;;;1.00;;
68858;SDS011;55864;49.238;8.092;2023-04-01T04:06:49;3.50;;;1.10;;
68858;SDS011;55864;49.238;8.092;2023-04-01T04:08:50;4.40;;;1.00;;
68858;SDS011;55864;49.238;8.092;2023-04-01T04:10:54;3.07;;;1.00;;
68858;SDS011;55864;49.238;8.092;2023-04-01T04:12:55;3.20;;;0.90;;
68858;SDS011;55864;49.238;8.092;2023-04-01T04:14:58;4.35;;;1.00;;
68858;SDS011;55864;49.238;8.092;2023-04-01T04:16:58;4.37;;;1.00;;
68858;SDS011;55864;49.238;8.092;2023-04-01T04:19:01;4.67;;;1.17;;
68858;SDS011;55864;49.238;8.092;2023-04-01T04:21:01;3.27;;;1.17;;
68858;SDS011;55864;49.238;8.092;2023-04-01T04:23:03;4.83;;;1.00;;
68858;SDS011;55864;49.238;8.092;2023-04-01T04:25:03;5.47;;;1.00;;
68858;SDS011;55864;49.238;8.092;2023-04-01T04:27:05;5.57;;;1.10;;
68858;SDS011;55864;49.238;8.092;2023-04-01T04:29:06;3.00;;;0.90;;
68858;SDS011;55864;49.238;8.092;2023-04-01T04:31:06;4.83;;;1.20;;
68858;SDS011;55864;49.238;8.092;2023-04-01T04:33:08;4.00;;;1.07;;
68858;SDS011;55864;49.238;8.092;2023-04-01T04:35:10;4.40;;;1.10;;
68858;SDS011;55864;49.238;8.092;2023-04-01T04:37:11;5.87;;;1.10;;
68858;SDS011;55864;49.238;8.092;2023-04-01T04:39:12;6.80;;;1.10;;
68858;SDS011;55864;49.238;8.092;2023-04-01T04:41:15;3.63;;;1.00;;
68858;SDS011;55864;49.238;8.092;2023-04-01T04:43:20;7.43;;;1.33;;
68858;SDS011;55864;49.238;8.092;2023-04-01T04:45:21;6.87;;;1.50;;
68858;SDS011;55864;49.238;8.092;2023-04-01T04:47:28;5.60;;;1.30;;
68858;SDS011;55864;49.238;8.092;2023-04-01T04:49:28;4.07;;;1.20;;
68858;SDS011;55864;49.238;8.092;2023-04-01T04:51:31;15.00;;;5.53;;
68858;SDS011;55864;49.238;8.092;2023-04-01T04:53:31;21.03;;;7.40;;
68858;SDS011;55864;49.238;8.092;2023-04-01T04:55:32;46.63;;;15.20;;
68858;SDS011;55864;49.238;8.092;2023-04-01T04:57:51;42.13;;;13.43;;
68858;SDS011;55864;49.238;8.092;2023-04-01T04:59:51;39.60;;;11.97;;
68858;SDS011;55864;49.238;8.092;2023-04-01T05:02:00;21.87;;;8.37;;
68858;SDS011;55864;49.238;8.092;2023-04-01T05:04:02;17.93;;;6.97;;
68858;SDS011;55864;49.238;8.092;2023-04-01T05:06:03;16.50;;;7.70;;
68858;SDS011;55864;49.238;8.092;2023-04-01T05:08:06;14.50;;;5.77;;
68858;SDS011;55864;49.238;8.092;2023-04-01T05:10:07;10.37;;;4.30;;
68858;SDS011;55864;49.238;8.092;2023-04-01T05:12:08;10.90;;;4.00;;
68858;SDS011;55864;49.238;8.092;2023-04-01T05:14:41;11.50;;;2.70;;
68858;SDS011;55864;49.238;8.092;2023-04-01T05:16:44;6.95;;;2.13;;
68858;SDS011;55864;49.238;8.092;2023-04-01T05:18:44;6.97;;;2.33;;
68858;SDS011;55864;49.238;8.092;2023-04-01T05:20:46;8.63;;;2.07;;
68858;SDS011;55864;49.238;8.092;2023-04-01T05:22:47;7.07;;;1.53;;
68858;SDS011;55864;49.238;8.092;2023-04-01T05:24:49;6.00;;;1.40;;
68858;SDS011;55864;49.238;8.092;2023-04-01T05:26:49;5.67;;;1.50;;
68858;SDS011;55864;49.238;8.092;2023-04-01T05:28:50;5.03;;;1.30;;
68858;SDS011;55864;49.238;8.092;2023-04-01T05:30:50;4.57;;;1.87;;
68858;SDS011;55864;49.238;8.092;2023-04-01T05:33:00;5.07;;;1.50;;
68858;SDS011;55864;49.238;8.092;2023-04-01T05:35:01;7.57;;;1.50;;
68858;SDS011;55864;49.238;8.092;2023-04-01T05:37:01;5.20;;;1.27;;
68858;SDS011;55864;49.238;8.092;2023-04-01T05:39:02;5.20;;;1.40;;
68858;SDS011;55864;49.238;8.092;2023-04-01T05:41:04;5.33;;;1.20;;
68858;SDS011;55864;49.238;8.092;2023-04-01T05:43:09;6.60;;;1.10;;
68858;SDS011;55864;49.238;8.092;2023-04-01T05:45:10;5.97;;;1.70;;
68858;SDS011;55864;49.238;8.092;2023-04-01T05:47:40;5.23;;;1.20;;
68858;SDS011;55864;49.238;8.092;2023-04-01T05:49:40;5.03;;;1.00;;
68858;SDS011;55864;49.238;8.092;2023-04-01T05:51:41;4.10;;;1.10;;
68858;SDS011;55864;49.238;8.092;2023-04-01T05:53:42;5.13;;;1.00;;
68858;SDS011;55864;49.238;8.092;2023-04-01T05:55:43;4.30;;;1.13;;
68858;SDS011;55864;49.238;8.092;2023-04-01T05:57:45;6.10;;;1.10;;
68858;SDS011;55864;49.238;8.092;2023-04-01T05:59:46;5.18;;;1.50;;
68858;SDS011;55864;49.238;8.092;2023-04-01T06:01:47;7.57;;;1.83;;
68858;SDS011;55864;49.238;8.092;2023-04-01T06:03:48;4.63;;;1.57;;
68858;SDS011;55864;49.238;8.092;2023-04-01T06:05:49;5.77;;;1.67;;
68858;SDS011;55864;49.238;8.092;2023-04-01T06:07:49;8.57;;;2.70;;
68858;SDS011;55864;49.238;8.092;2023-04-01T06:09:54;13.07;;;4.23;;
68858;SDS011;55864;49.238;8.092;2023-04-01T06:11:58;6.50;;;1.90;;
68858;SDS011;55864;49.238;8.092;2023-04-01T06:14:22;12.73;;;5.10;;
68858;SDS011;55864;49.238;8.092;2023-04-01T06:16:37;6.90;;;1.97;;
68858;SDS011;55864;49.238;8.092;2023-04-01T06:18:50;8.27;;;3.70;;
68858;SDS011;55864;49.238;8.092;2023-04-01T06:21:01;6.97;;;2.20;;
68858;SDS011;55864;49.238;8.092;2023-04-01T06:23:10;4.23;;;1.50;;
68858;SDS011;55864;49.238;8.092;2023-04-01T06:30:07;3.33;;;0.90;;
68858;SDS011;55864;49.238;8.092;2023-04-01T06:32:29;5.43;;;1.00;;
68858;SDS011;55864;49.238;8.092;2023-04-01T06:34:48;2.53;;;1.00;;
68858;SDS011;55864;49.238;8.092;2023-04-01T06:37:12;1.87;;;0.90;;
68858;SDS011;55864;49.238;8.092;2023-04-01T06:39:39;5.37;;;1.40;;
68858;SDS011;55864;49.238;8.092;2023-04-01T06:42:11;4.53;;;0.90;;
68858;SDS011;55864;49.238;8.092;2023-04-01T06:44:21;5.40;;;1.20;;
68858;SDS011;55864;49.238;8.092;2023-04-01T06:47:04;4.93;;;1.33;;
68858;SDS011;55864;49.238;8.092;2023-04-01T06:49:41;4.83;;;1.03;;
68858;SDS011;55864;49.238;8.092;2023-04-01T06:52:11;4.67;;;1.30;;
68858;SDS011;55864;49.238;8.092;2023-04-01T06:54:42;5.67;;;1.57;;
68858;SDS011;55864;49.238;8.092;2023-04-01T06:57:18;4.60;;;1.20;;
68858;SDS011;55864;49.238;8.092;2023-04-01T06:59:25;5.83;;;1.30;;
68858;SDS011;55864;49.238;8.092;2023-04-01T07:01:29;6.47;;;1.60;;
68858;SDS011;55864;49.238;8.092;2023-04-01T07:03:38;4.27;;;1.30;;
68858;SDS011;55864;49.238;8.092;2023-04-01T07:05:43;5.53;;;1.37;;
68858;SDS011;55864;49.238;8.092;2023-04-01T07:07:44;5.97;;;1.47;;
68858;SDS011;55864;49.238;8.092;2023-04-01T07:09:49;4.90;;;1.30;;
68858;SDS011;55864;49.238;8.092;2023-04-01T07:14:27;2.80;;;0.87;;
68858;SDS011;55864;49.238;8.092;2023-04-01T07:16:32;3.03;;;0.90;;
68858;SDS011;55864;49.238;8.092;2023-04-01T07:18:40;4.77;;;0.90;;
68858;SDS011;55864;49.238;8.092;2023-04-01T07:20:44;4.20;;;0.90;;
68858;SDS011;55864;49.238;8.092;2023-04-01T07:22:47;2.13;;;0.87;;
68858;SDS011;55864;49.238;8.092;2023-04-01T07:24:57;3.57;;;1.13;;
68858;SDS011;55864;49.238;8.092;2023-04-01T07:27:02;4.43;;;1.00;;
68858;SDS011;55864;49.238;8.092;2023-04-01T07:29:09;4.07;;;1.10;;
68858;SDS011;55864;49.238;8.092;2023-04-01T07:31:16;3.37;;;1.13;;
68858;SDS011;55864;49.238;8.092;2023-04-01T07:33:22;4.30;;;1.20;;
68858;SDS011;55864;49.238;8.092;2023-04-01T07:35:30;3.50;;;1.10;;
68858;SDS011;55864;49.238;8.092;2023-04-01T07:37:40;2.87;;;1.07;;
68858;SDS011;55864;49.238;8.092;2023-04-01T07:39:49;4.77;;;1.30;;
68858;SDS011;55864;49.238;8.092;2023-04-01T07:42:01;8.00;;;1.27;;
68858;SDS011;55864;49.238;8.092;2023-04-01T07:44:13;5.20;;;1.10;;
68858;SDS011;55864;49.238;8.092;2023-04-01T07:48:50;3.60;;;1.10;;
68858;SDS011;55864;49.238;8.092;2023-04-01T07:50:57;4.17;;;1.20;;
68858;SDS011;55864;49.238;8.092;2023-04-01T07:53:05;4.27;;;1.30;;
68858;SDS011;55864;49.238;8.092;2023-04-01T07:55:13;5.73;;;1.87;;
68858;SDS011;55864;49.238;8.092;2023-04-01T07:57:19;6.57;;;2.30;;
68858;SDS011;55864;49.238;8.092;2023-04-01T07:59:27;8.53;;;2.17;;
68858;SDS011;55864;49.238;8.092;2023-04-01T08:01:59;5.87;;;2.00;;
68858;SDS011;55864;49.238;8.092;2023-04-01T08:04:17;6.27;;;2.03;;
68858;SDS011;55864;49.238;8.092;2023-04-01T08:06:39;5.87;;;2.27;;
68858;SDS011;55864;49.238;8.092;2023-04-01T08:08:51;6.63;;;2.20;;
68858;SDS011;55864;49.238;8.092;2023-04-01T08:11:22;7.10;;;2.23;;
68858;SDS011;55864;49.238;8.092;2023-04-01T08:16:33;4.03;;;1.10;;
68858;SDS011;55864;49.238;8.092;2023-04-01T08:18:43;3.17;;;1.10;;
68858;SDS011;55864;49.238;8.092;2023-04-01T08:20:53;3.20;;;1.07;;
68858;SDS011;55864;49.238;8.092;2023-04-01T08:23:00;5.47;;;1.40;;
68858;SDS011;55864;49.238;8.092;2023-04-01T08:25:12;3.50;;;1.20;;
68858;SDS011;55864;49.238;8.092;2023-04-01T08:27:21;3.53;;;1.13;;
68858;SDS011;55864;49.238;8.092;2023-04-01T08:29:30;5.00;;;1.63;;
68858;SDS011;55864;49.238;8.092;2023-04-01T08:31:35;4.17;;;1.30;;
68858;SDS011;55864;49.238;8.092;2023-04-01T08:33:39;5.27;;;1.40;;
68858;SDS011;55864;49.238;8.092;2023-04-01T08:35:46;5.13;;;1.30;;
68858;SDS011;55864;49.238;8.092;2023-04-01T08:37:52;3.20;;;1.00;;
68858;SDS011;55864;49.238;8.092;2023-04-01T08:40:01;5.93;;;1.50;;
68858;SDS011;55864;49.238;8.092;2023-04-01T08:42:27;3.07;;;1.27;;
68858;SDS011;55864;49.238;8.092;2023-04-01T08:47:19;3.43;;;1.20;;
68858;SDS011;55864;49.238;8.092;2023-04-01T08:49:36;2.90;;;1.20;;
68858;SDS011;55864;49.238;8.092;2023-04-01T08:52:18;3.20;;;1.20;;
68858;SDS011;55864;49.238;8.092;2023-04-01T08:54:34;4.93;;;1.40;;
68858;SDS011;55864;49.238;8.092;2023-04-01T08:56:50;5.57;;;1.20;;
68858;SDS011;55864;49.238;8.092;2023-04-01T08:59:04;2.80;;;1.00;;
68858;SDS011;55864;49.238;8.092;2023-04-01T09:01:18;2.93;;;1.00;;
68858;SDS011;55864;49.238;8.092;2023-04-01T09:03:34;5.85;;;1.10;;
68858;SDS011;55864;49.238;8.092;2023-04-01T09:05:45;1.40;;;0.90;;
68858;SDS011;55864;49.238;8.092;2023-04-01T09:08:02;3.17;;;1.20;;
68858;SDS011;55864;49.238;8.092;2023-04-01T09:10:24;2.43;;;1.10;;
68858;SDS011;55864;49.238;8.092;2023-04-01T09:21:03;2.57;;;1.00;;
68858;SDS011;55864;49.238;8.092;2023-04-01T09:23:26;1.63;;;0.80;;
68858;SDS011;55864;49.238;8.092;2023-04-01T09:25:38;1.90;;;0.80;;
68858;SDS011;55864;49.238;8.092;2023-04-01T09:27:53;3.22;;;1.00;;
68858;SDS011;55864;49.238;8.092;2023-04-01T09:30:17;5.90;;;1.37;;
68858;SDS011;55864;49.238;8.092;2023-04-01T09:32:42;6.80;;;1.60;;
68858;SDS011;55864;49.238;8.092;2023-04-01T09:35:10;6.20;;;1.70;;
68858;SDS011;55864;49.238;8.092;2023-04-01T09:37:24;6.67;;;1.70;;
68858;SDS011;55864;49.238;8.092;2023-04-01T09:39:40;8.73;;;1.80;;
68858;SDS011;55864;49.238;8.092;2023-04-01T09:41:52;9.17;;;1.97;;
68858;SDS011;55864;49.238;8.092;2023-04-01T09:44:14;8.87;;;2.70;;
68858;SDS011;55864;49.238;8.092;2023-04-01T09:46:48;8.80;;;2.40;;
68858;SDS011;55864;49.238;8.092;2023-04-01T09:49:13;9.17;;;2.97;;
68858;SDS011;55864;49.238;8.092;2023-04-01T09:51:32;4.90;;;1.50;;
68858;SDS011;55864;49.238;8.092;2023-04-01T09:53:47;7.30;;;2.20;;
68858;SDS011;55864;49.238;8.092;2023-04-01T09:59:16;4.80;;;1.50;;
68858;SDS011;55864;49.238;8.092;2023-04-01T10:08:03;3.77;;;1.10;;
68858;SDS011;55864;49.238;8.092;2023-04-01T10:18:29;11.53;;;3.63;;
68858;SDS011;55864;49.238;8.092;2023-04-01T10:23:34;5.10;;;1.70;;
68858;SDS011;55864;49.238;8.092;2023-04-01T10:26:07;18.43;;;7.13;;
68858;SDS011;55864;49.238;8.092;2023-04-01T10:31:55;7.55;;;3.00;;
68858;SDS011;55864;49.238;8.092;2023-04-01T10:36:52;10.15;;;3.95;;
68858;SDS011;55864;49.238;8.092;2023-04-01T10:48:17;5.70;;;1.87;;
68858;SDS011;55864;49.238;8.092;2023-04-01T10:50:25;4.75;;;1.50;;
68858;SDS011;55864;49.238;8.092;2023-04-01T10:53:00;5.27;;;1.50;;
68858;SDS011;55864;49.238;8.092;2023-04-01T10:55:53;7.93;;;2.67;;
68858;SDS011;55864;49.238;8.092;2023-04-01T11:04:50;13.38;;;4.80;;
68858;SDS011;55864;49.238;8.092;2023-04-01T11:09:50;27.70;;;9.50;;
68858;SDS011;55864;49.238;8.092;2023-04-01T11:12:31;19.25;;;7.43;;
68858;SDS011;55864;49.238;8.092;2023-04-01T11:17:34;10.68;;;4.53;;
68858;SDS011;55864;49.238;8.092;2023-04-01T11:20:08;15.38;;;6.13;;
68858;SDS011;55864;49.238;8.092;2023-04-01T11:22:35;12.30;;;4.93;;
68858;SDS011;55864;49.238;8.092;2023-04-01T11:24:52;8.57;;;2.90;;
68858;SDS011;55864;49.238;8.092;2023-04-01T11:27:54;4.30;;;1.47;;
68858;SDS011;55864;49.238;8.092;2023-04-01T11:30:20;2.83;;;1.20;;
68858;SDS011;55864;49.238;8.092;2023-04-01T11:32:42;4.18;;;1.13;;
68858;SDS011;55864;49.238;8.092;2023-04-01T11:34:50;9.60;;;3.63;;
68858;SDS011;55864;49.238;8.092;2023-04-01T11:37:03;9.15;;;3.03;;
68858;SDS011;55864;49.238;8.092;2023-04-01T11:39:20;5.53;;;2.47;;
68858;SDS011;55864;49.238;8.092;2023-04-01T11:41:37;4.07;;;1.52;;
68858;SDS011;55864;49.238;8.092;2023-04-01T11:44:08;4.40;;;1.80;;
68858;SDS011;55864;49.238;8.092;2023-04-01T11:46:32;2.85;;;1.20;;
68858;SDS011;55864;49.238;8.092;2023-04-01T11:48:41;2.58;;;1.10;;
68858;SDS011;55864;49.238;8.092;2023-04-01T11:51:00;3.83;;;1.20;;
68858;SDS011;55864;49.238;8.092;2023-04-01T11:53:16;4.03;;;1.30;;
68858;SDS011;55864;49.238;8.092;2023-04-01T11:55:24;2.92;;;1.20;;
68858;SDS011;55864;49.238;8.092;2023-04-01T11:57:56;2.63;;;0.90;;
68858;SDS011;55864;49.238;8.092;2023-04-01T12:00:32;1.57;;;1.00;;
68858;SDS011;55864;49.238;8.092;2023-04-01T12:02:58;1.87;;;0.90;;
68858;SDS011;55864;49.238;8.092;2023-04-01T12:05:24;1.67;;;1.07;;
68858;SDS011;55864;49.238;8.092;2023-04-01T12:10:16;2.27;;;1.10;;
68858;SDS011;55864;49.238;8.092;2023-04-01T12:12:20;2.77;;;1.10;;
68858;SDS011;55864;49.238;8.092;2023-04-01T12:14:32;2.00;;;0.90;;
68858;SDS011;55864;49.238;8.092;2023-04-01T12:16:43;3.08;;;1.20;;
68858;SDS011;55864;49.238;8.092;2023-04-01T12:18:59;1.95;;;0.90;;
68858;SDS011;55864;49.238;8.092;2023-04-01T12:21:14;2.35;;;1.00;;
68858;SDS011;55864;49.238;8.092;2023-04-01T12:23:38;2.22;;;1.10;;
68858;SDS011;55864;49.238;8.092;2023-04-01T12:28:18;2.53;;;0.82;;
68858;SDS011;55864;49.238;8.092;2023-04-01T12:32:53;3.58;;;1.15;;
68858;SDS011;55864;49.238;8.092;2023-04-01T12:35:02;2.03;;;0.80;;
68858;SDS011;55864;49.238;8.092;2023-04-01T12:37:17;1.73;;;0.90;;
68858;SDS011;55864;49.238;8.092;2023-04-01T12:41:59;4.78;;;1.20;;
68858;SDS011;55864;49.238;8.092;2023-04-01T12:44:13;2.43;;;1.10;;
68858;SDS011;55864;49.238;8.092;2023-04-01T12:46:24;4.40;;;1.10;;
68858;SDS011;55864;49.238;8.092;2023-04-01T12:48:45;1.98;;;0.90;;
68858;SDS011;55864;49.238;8.092;2023-04-01T12:51:31;1.50;;;0.90;;
68858;SDS011;55864;49.238;8.092;2023-04-01T12:54:07;2.77;;;1.10;;
68858;SDS011;55864;49.238;8.092;2023-04-01T12:56:32;2.85;;;1.25;;
68858;SDS011;55864;49.238;8.092;2023-04-01T12:59:25;2.35;;;1.00;;
68858;SDS011;55864;49.238;8.092;2023-04-01T13:01:51;1.98;;;0.82;;
68858;SDS011;55864;49.238;8.092;2023-04-01T13:27:30;1.85;;;0.80;;
68858;SDS011;55864;49.238;8.092;2023-04-01T13:29:38;2.55;;;0.80;;
68858;SDS011;55864;49.238;8.092;2023-04-01T13:35:01;2.30;;;0.73;;
68858;SDS011;55864;49.238;8.092;2023-04-01T13:37:22;3.10;;;0.90;;
68858;SDS011;55864;49.238;8.092;2023-04-01T13:42:06;2.88;;;1.00;;
68858;SDS011;55864;49.238;8.092;2023-04-01T13:44:24;1.57;;;0.80;;
68858;SDS011;55864;49.238;8.092;2023-04-01T13:46:35;1.75;;;0.98;;
68858;SDS011;55864;49.238;8.092;2023-04-01T13:48:55;1.85;;;0.85;;
68858;SDS011;55864;49.238;8.092;2023-04-01T13:51:55;1.85;;;0.88;;
68858;SDS011;55864;49.238;8.092;2023-04-01T13:56:56;2.10;;;0.90;;
68858;SDS011;55864;49.238;8.092;2023-04-01T13:59:17;1.83;;;0.70;;
68858;SDS011;55864;49.238;8.092;2023-04-01T14:01:52;3.15;;;1.00;;
68858;SDS011;55864;49.238;8.092;2023-04-01T14:04:14;2.17;;;0.80;;
68858;SDS011;55864;49.238;8.092;2023-04-01T14:06:51;2.63;;;1.07;;
68858;SDS011;55864;49.238;8.092;2023-04-01T14:09:08;3.03;;;1.15;;
68858;SDS011;55864;49.238;8.092;2023-04-01T14:11:25;2.05;;;1.05;;
68858;SDS011;55864;49.238;8.092;2023-04-01T14:13:37;2.83;;;0.90;;
68858;SDS011;55864;49.238;8.092;2023-04-01T14:15:56;3.63;;;1.00;;
68858;SDS011;55864;49.238;8.092;2023-04-01T14:26:16;1.85;;;0.90;;
68858;SDS011;55864;49.238;8.092;2023-04-01T14:28:41;4.45;;;1.52;;
68858;SDS011;55864;49.238;8.092;2023-04-01T14:30:59;4.40;;;1.50;;
68858;SDS011;55864;49.238;8.092;2023-04-01T14:33:30;2.25;;;0.95;;
68858;SDS011;55864;49.238;8.092;2023-04-01T14:35:41;2.55;;;1.00;;
68858;SDS011;55864;49.238;8.092;2023-04-01T15:36:57;3.57;;;1.10;;
68858;SDS011;55864;49.238;8.092;2023-04-01T15:39:05;5.18;;;1.50;;
68858;SDS011;55864;49.238;8.092;2023-04-01T15:41:14;5.43;;;1.90;;
68858;SDS011;55864;49.238;8.092;2023-04-01T15:43:19;5.72;;;1.65;;
68858;SDS011;55864;49.238;8.092;2023-04-01T15:45:31;2.85;;;1.00;;
68858;SDS011;55864;49.238;8.092;2023-04-01T15:47:42;3.28;;;1.20;;
68858;SDS011;55864;49.238;8.092;2023-04-01T15:49:47;4.53;;;1.30;;
68858;SDS011;55864;49.238;8.092;2023-04-01T15:51:58;3.60;;;1.27;;
68858;SDS011;55864;49.238;8.092;2023-04-01T15:54:38;3.15;;;1.30;;
68858;SDS011;55864;49.238;8.092;2023-04-01T15:56:54;6.65;;;2.00;;
68858;SDS011;55864;49.238;8.092;2023-04-01T15:59:13;4.57;;;1.20;;
68858;SDS011;55864;49.238;8.092;2023-04-01T16:01:26;3.13;;;1.00;;
68858;SDS011;55864;49.238;8.092;2023-04-01T16:03:37;3.50;;;1.23;;
68858;SDS011;55864;49.238;8.092;2023-04-01T16:05:42;6.10;;;2.00;;
68858;SDS011;55864;49.238;8.092;2023-04-01T16:08:01;4.22;;;1.42;;
68858;SDS011;55864;49.238;8.092;2023-04-01T16:10:35;4.05;;;1.40;;